createdAt,value
2023-02-02T00:02:02.702Z,96962.59
2023-02-02T00:04:31.913Z,97033.84
2023-02-02T00:06:59.148Z,97013.03
2023-02-02T00:09:30.961Z,97020.72
2023-02-02T00:11:58.556Z,96912.81
2023-02-02T00:14:25.632Z,96961.41
2023-02-02T00:16:56.846Z,96962.81
2023-02-02T00:19:26.565Z,96980.25
2023-02-02T00:21:54.434Z,96954.50
2023-02-02T00:24:21.377Z,96956.84
2023-02-02T00:26:50.716Z,97002.59
2023-02-02T00:29:35.413Z,96939.47
2023-02-02T00:32:01.941Z,96935.44
2023-02-02T00:34:28.548Z,97010.88
2023-02-02T00:36:55.017Z,96959.91
2023-02-02T00:39:27.261Z,96977.38
2023-02-02T00:41:54.990Z,96925.66
2023-02-02T00:44:40.229Z,96913.41
2023-02-02T00:47:06.706Z,96932.78
2023-02-02T00:49:33.077Z,97017.50
2023-02-02T00:52:00.360Z,96934.41
2023-02-02T00:54:27.840Z,96934.56
2023-02-02T00:56:54.732Z,96940.06
2023-02-02T00:59:21.381Z,96945.13
2023-02-02T01:01:47.957Z,97029.16
2023-02-02T01:04:14.514Z,96921.50
2023-02-02T01:06:41.178Z,96946.47
2023-02-02T01:09:08.304Z,97035.47
2023-02-02T01:11:34.816Z,96976.56
2023-02-02T01:14:01.455Z,96958.53
2023-02-02T01:16:28.161Z,96959.53
2023-02-02T01:18:55.123Z,96970.81
2023-02-02T01:21:22.534Z,97021.13
2023-02-02T01:23:50.453Z,96987.28
2023-02-02T01:26:17.923Z,96963.06
2023-02-02T01:28:44.868Z,96967.00
2023-02-02T01:31:15.173Z,96971.75
2023-02-02T01:33:43.770Z,96962.78
2023-02-02T01:36:13.447Z,97058.59
2023-02-02T01:38:40.228Z,96994.78
2023-02-02T01:41:07.236Z,97007.78
2023-02-02T01:43:43.166Z,97050.09
2023-02-02T01:46:15.663Z,96966.31
2023-02-02T01:48:46.295Z,96973.22
2023-02-02T01:51:21.353Z,96966.19
2023-02-02T01:53:50.972Z,97046.47
2023-02-02T01:56:27.766Z,96963.41
2023-02-02T01:58:54.593Z,96992.19
2023-02-02T02:01:21.195Z,96951.25
2023-02-02T02:03:47.871Z,96993.00
2023-02-02T02:06:18.820Z,97030.16
2023-02-02T02:08:57.586Z,97012.72
2023-02-02T02:11:25.089Z,96956.97
2023-02-02T02:14:13.392Z,96933.56
2023-02-02T02:17:03.325Z,97042.75
2023-02-02T02:20:01.869Z,96945.91
2023-02-02T02:23:14.342Z,96955.19
2023-02-02T02:26:17.794Z,97054.81
2023-02-02T02:29:09.585Z,97019.78
2023-02-02T02:31:57.340Z,97046.91
2023-02-02T02:34:35.887Z,97051.84
2023-02-02T02:37:11.277Z,97051.47
2023-02-02T02:39:45.694Z,96980.81
2023-02-02T02:42:19.919Z,96977.53
2023-02-02T02:44:48.972Z,96987.72
2023-02-02T02:47:17.328Z,97029.41
2023-02-02T02:49:45.703Z,96979.25
2023-02-02T02:52:13.086Z,96992.13
2023-02-02T02:54:51.560Z,97053.56
2023-02-02T02:57:41.220Z,96982.25
2023-02-02T03:00:14.509Z,97053.50
2023-02-02T03:02:57.596Z,96981.41
2023-02-02T03:05:40.872Z,96943.56
2023-02-02T03:08:29.126Z,97051.22
2023-02-02T03:10:57.974Z,97049.69
2023-02-02T03:13:26.679Z,96941.81
2023-02-02T03:15:53.494Z,96993.00
2023-02-02T03:18:23.035Z,97002.81
2023-02-02T03:20:49.532Z,96992.66
2023-02-02T03:23:16.051Z,96931.78
2023-02-02T03:25:43.462Z,96993.75
2023-02-02T03:28:10.025Z,96974.31
2023-02-02T03:30:38.168Z,96920.25
2023-02-02T03:33:05.493Z,96973.47
2023-02-02T03:35:32.533Z,97011.84
2023-02-02T03:37:58.991Z,97026.63
2023-02-02T03:40:25.401Z,96993.72
2023-02-02T03:42:51.889Z,96971.25
2023-02-02T03:45:18.408Z,96975.00
2023-02-02T03:47:45.027Z,97065.09
2023-02-02T03:50:12.277Z,96999.94
2023-02-02T03:52:39.076Z,96995.50
2023-02-02T03:55:06.204Z,97007.34
2023-02-02T03:57:32.681Z,97007.31
2023-02-02T03:59:59.131Z,96951.81
2023-02-02T04:02:25.949Z,97060.59
2023-02-02T04:04:52.399Z,96972.44
2023-02-02T04:07:19.070Z,97068.16
2023-02-02T04:09:45.537Z,97039.84
2023-02-02T04:12:11.996Z,96989.50
2023-02-02T04:14:38.569Z,96961.66
2023-02-02T04:17:05.144Z,96999.78
2023-02-02T04:19:31.618Z,96967.47
2023-02-02T04:21:57.989Z,97076.78
2023-02-02T04:24:24.552Z,96979.41
2023-02-02T04:26:51.056Z,96939.22
2023-02-02T04:29:17.661Z,96980.97
2023-02-02T04:31:44.482Z,97031.78
2023-02-02T04:34:11.034Z,97093.03
2023-02-02T04:36:37.489Z,97061.53
2023-02-02T04:39:04.045Z,97012.31
2023-02-02T04:41:30.552Z,97021.22
2023-02-02T04:43:57.447Z,97115.25
2023-02-02T04:46:23.910Z,97114.16
2023-02-02T04:48:50.338Z,97100.25
2023-02-02T04:51:18.678Z,97056.00
2023-02-02T04:53:45.853Z,97109.63
2023-02-02T04:56:15.099Z,97036.78
2023-02-02T04:58:42.269Z,97085.38
2023-02-02T05:01:15.486Z,97105.34
2023-02-02T05:03:42.087Z,97099.63
2023-02-02T05:06:08.886Z,97089.78
2023-02-02T05:08:35.977Z,97083.44
2023-02-02T05:11:10.178Z,97087.81
2023-02-02T05:13:36.899Z,97096.31
2023-02-02T05:16:03.697Z,97085.38
2023-02-02T05:18:31.665Z,97073.94
2023-02-02T05:21:02.950Z,97074.06
2023-02-02T05:23:30.565Z,97047.75
2023-02-02T05:25:57.477Z,97078.50
2023-02-02T05:28:24.431Z,97073.94
2023-02-02T05:30:51.258Z,97079.78
2023-02-02T05:33:20.663Z,97057.97
2023-02-02T05:35:48.284Z,97064.16
2023-02-02T05:38:15.812Z,97062.03
2023-02-02T05:40:42.340Z,97058.59
2023-02-02T05:43:08.834Z,97072.59
2023-02-02T05:45:35.354Z,97072.72
2023-02-02T05:48:02.166Z,97067.19
2023-02-02T05:50:28.707Z,97069.88
2023-02-02T05:53:03.814Z,97052.19
2023-02-02T05:55:30.236Z,97058.06
2023-02-02T05:57:56.584Z,97069.41
2023-02-02T06:00:23.316Z,97068.66
2023-02-02T06:02:49.826Z,97078.13
2023-02-02T06:05:16.447Z,97081.81
2023-02-02T06:07:42.899Z,97057.78
2023-02-02T06:10:09.497Z,97078.44
2023-02-02T06:12:36.045Z,97054.00
2023-02-02T06:15:02.535Z,97063.31
2023-02-02T06:17:29.009Z,97044.88
2023-02-02T06:19:55.450Z,97062.59
2023-02-02T06:22:21.814Z,97085.41
2023-02-02T06:24:48.278Z,97062.00
2023-02-02T06:27:14.724Z,97076.06
2023-02-02T06:29:41.136Z,97085.03
2023-02-02T06:32:07.501Z,97086.47
2023-02-02T06:34:33.953Z,97070.91
2023-02-02T06:37:00.321Z,97078.91
2023-02-02T06:39:27.235Z,97082.56
2023-02-02T06:41:53.585Z,97083.91
2023-02-02T06:44:21.034Z,97038.44
2023-02-02T06:46:47.739Z,97052.47
2023-02-02T06:49:14.246Z,97048.59
2023-02-02T06:51:40.785Z,97061.78
2023-02-02T06:54:07.259Z,97096.91
2023-02-02T06:56:33.825Z,97104.00
2023-02-02T06:59:00.252Z,97096.09
2023-02-02T07:01:26.676Z,97114.19
2023-02-02T07:03:53.500Z,97109.00
2023-02-02T07:06:28.185Z,97117.13
2023-02-02T07:08:59.614Z,97121.31
2023-02-02T07:11:29.074Z,97118.78
2023-02-02T07:13:55.763Z,97110.69
2023-02-02T07:16:22.241Z,97113.13
2023-02-02T07:18:49.400Z,97089.38
2023-02-02T07:21:21.683Z,97119.06
2023-02-02T07:23:48.814Z,97126.50
2023-02-02T07:26:16.940Z,97125.84
2023-02-02T07:28:43.668Z,97138.97
2023-02-02T07:31:22.209Z,97120.66
2023-02-02T07:33:49.322Z,97106.50
2023-02-02T07:36:17.955Z,97118.50
2023-02-02T07:38:45.874Z,97140.88
2023-02-02T07:41:13.383Z,97140.22
2023-02-02T07:43:40.271Z,97120.34
2023-02-02T07:46:10.051Z,97144.03
2023-02-02T07:48:37.288Z,97125.09
2023-02-02T07:51:09.805Z,97142.19
2023-02-02T07:53:36.256Z,97131.00
2023-02-02T07:56:10.007Z,97156.66
2023-02-02T07:58:37.183Z,97152.41
2023-02-02T08:01:05.984Z,97143.47
2023-02-02T08:03:32.955Z,97168.81
2023-02-02T08:05:59.622Z,97155.81
2023-02-02T08:08:26.340Z,97174.38
2023-02-02T08:10:54.317Z,97169.53
2023-02-02T08:13:20.972Z,97166.34
2023-02-02T08:15:47.550Z,97148.16
2023-02-02T08:18:14.036Z,97166.19
2023-02-02T08:20:40.380Z,97163.16
2023-02-02T08:23:13.376Z,97150.66
2023-02-02T08:25:40.129Z,97154.69
2023-02-02T08:28:06.592Z,97151.19
2023-02-02T08:30:35.453Z,97166.19
2023-02-02T08:33:02.036Z,97185.88
2023-02-02T08:35:28.625Z,97155.00
2023-02-02T08:37:55.082Z,97157.88
2023-02-02T08:40:21.499Z,97182.47
2023-02-02T08:42:53.382Z,97181.44
2023-02-02T08:46:04.241Z,97171.22
2023-02-02T08:48:12.030Z,97179.88
2023-02-02T08:50:39.297Z,97187.59
2023-02-02T08:53:05.865Z,97125.75
2023-02-02T08:55:32.360Z,97134.66
2023-02-02T08:57:58.838Z,97150.13
2023-02-02T09:00:25.513Z,97170.50
2023-02-02T09:02:51.929Z,97160.69
2023-02-02T09:05:18.751Z,97175.78
2023-02-02T09:07:45.793Z,97170.81
2023-02-02T09:10:12.307Z,97191.66
2023-02-02T09:12:38.687Z,97187.00
2023-02-02T09:15:05.496Z,97169.53
2023-02-02T09:17:31.929Z,97198.97
2023-02-02T09:19:58.345Z,97194.81
2023-02-02T09:22:24.815Z,97187.91
2023-02-02T09:24:51.196Z,97191.00
2023-02-02T09:27:17.683Z,97206.91
2023-02-02T09:29:44.175Z,97206.91
2023-02-02T09:32:10.633Z,97206.19
2023-02-02T09:34:39.020Z,97213.84
2023-02-02T09:37:06.564Z,97193.81
2023-02-02T09:39:33.348Z,97206.75
2023-02-02T09:42:06.241Z,97216.84
2023-02-02T09:44:41.875Z,97220.66
2023-02-02T09:47:19.930Z,97214.84
2023-02-02T09:49:52.219Z,97224.97
2023-02-02T09:52:28.837Z,97225.91
2023-02-02T09:55:11.757Z,97218.34
2023-02-02T09:57:45.574Z,97227.34
2023-02-02T10:00:24.305Z,97229.69
2023-02-02T10:02:55.372Z,97211.00
2023-02-02T10:05:28.055Z,97238.41
2023-02-02T10:08:02.450Z,97228.91
2023-02-02T10:10:35.525Z,97236.84
2023-02-02T10:13:39.183Z,97229.06
2023-02-02T10:16:19.797Z,97264.53
2023-02-02T10:18:57.917Z,97223.50
2023-02-02T10:21:46.197Z,97246.84
2023-02-02T10:24:27.791Z,97193.59
2023-02-02T10:26:57.222Z,97250.06
2023-02-02T10:29:23.753Z,97244.91
2023-02-02T10:32:14.974Z,97248.91
2023-02-02T10:35:12.580Z,97234.94
2023-02-02T10:38:03.096Z,97246.97
2023-02-02T10:40:58.085Z,97210.28
2023-02-02T10:43:46.997Z,97221.78
2023-02-02T10:46:22.345Z,97247.56
2023-02-02T10:48:50.145Z,97252.56
2023-02-02T10:51:29.361Z,97228.56
2023-02-02T10:54:00.158Z,97257.16
2023-02-02T10:56:40.366Z,97251.00
2023-02-02T10:59:11.479Z,97264.28
2023-02-02T11:01:38.045Z,97250.44
2023-02-02T11:04:22.912Z,97234.94
2023-02-02T11:06:49.688Z,97224.66
2023-02-02T11:09:21.068Z,97254.22
2023-02-02T11:11:52.272Z,97242.78
2023-02-02T11:14:30.378Z,97237.97
2023-02-02T11:32:56.567Z,97257.22
2023-02-02T11:35:26.177Z,97257.19
2023-02-02T11:38:10.814Z,97276.34
2023-02-02T11:40:38.819Z,97254.44
2023-02-02T11:43:17.165Z,97264.22
2023-02-02T11:45:49.345Z,97252.47
2023-02-02T11:48:19.696Z,97250.13
2023-02-02T11:50:54.707Z,97238.50
2023-02-02T11:53:35.682Z,97246.16
2023-02-02T11:56:10.285Z,97253.00
2023-02-02T11:58:46.245Z,97247.63
2023-02-02T12:01:39.445Z,97259.13
2023-02-02T12:04:15.166Z,97266.94
2023-02-02T12:06:41.636Z,97249.22
2023-02-02T12:09:26.427Z,97270.91
2023-02-02T12:12:24.546Z,97257.16
2023-02-02T12:14:57.065Z,97254.59
2023-02-02T12:17:35.221Z,97241.13
2023-02-02T12:20:36.626Z,97238.97
2023-02-02T12:23:11.958Z,97234.75
2023-02-02T12:25:59.289Z,97250.44
2023-02-02T12:28:44.398Z,97258.38
2023-02-02T12:31:27.243Z,97236.97
2023-02-02T12:34:25.306Z,97250.41
2023-02-02T12:37:23.998Z,97258.59
2023-02-02T12:40:18.109Z,97254.06
2023-02-02T12:42:53.716Z,97249.13
2023-02-02T12:45:45.653Z,97234.38
2023-02-02T12:48:24.052Z,97243.22
2023-02-02T12:51:18.773Z,97256.66
2023-02-02T12:54:35.024Z,97278.22
2023-02-02T12:57:01.702Z,97266.31
2023-02-02T12:59:50.310Z,97267.72
2023-02-02T13:02:38.792Z,97273.03
2023-02-02T13:06:02.381Z,97272.47
2023-02-02T13:08:55.801Z,97287.81
2023-02-02T13:11:53.092Z,97272.63
2023-02-02T13:14:27.538Z,97278.47
2023-02-02T13:17:00.870Z,97281.78
2023-02-02T13:19:42.063Z,97285.00
2023-02-02T13:22:26.905Z,97291.00
2023-02-02T13:25:00.123Z,97286.19
2023-02-02T13:27:30.533Z,97299.72
2023-02-02T13:30:13.546Z,97271.94
2023-02-02T13:32:45.665Z,97284.38
2023-02-02T13:35:20.496Z,97297.22
2023-02-02T13:38:27.779Z,97283.72
2023-02-02T13:40:55.985Z,97274.03
2023-02-02T13:43:39.927Z,97262.44
2023-02-02T13:46:29.702Z,97296.94
2023-02-02T13:49:17.938Z,97300.81
2023-02-02T13:51:58.179Z,97297.31
2023-02-02T13:54:58.579Z,97307.16
2023-02-02T13:57:48.771Z,97306.00
2023-02-02T14:00:25.218Z,97310.63
2023-02-02T14:03:03.334Z,97320.31
2023-02-02T14:05:34.248Z,97311.81
2023-02-02T14:08:06.696Z,97327.03
2023-02-02T14:10:35.489Z,97325.03
2023-02-02T14:13:29.783Z,97330.41
2023-02-02T14:15:58.241Z,97336.22
2023-02-02T14:18:50.099Z,97335.47
2023-02-02T14:21:31.888Z,97343.84
2023-02-02T14:24:26.888Z,97345.38
2023-02-02T14:26:54.543Z,97344.81
2023-02-02T14:29:29.411Z,97337.84
2023-02-02T14:31:59.171Z,97343.94
2023-02-02T14:34:36.356Z,97351.41
2023-02-02T14:37:20.632Z,97355.19
2023-02-02T14:40:12.393Z,97355.22
2023-02-02T14:43:19.241Z,97358.47
2023-02-02T14:45:51.119Z,97333.50
2023-02-02T14:48:23.540Z,97368.75
2023-02-02T14:50:53.522Z,97366.28
2023-02-02T14:53:25.437Z,97362.00
2023-02-02T14:55:55.824Z,97368.50
2023-02-02T14:58:30.739Z,97370.38
2023-02-02T15:01:17.503Z,97366.88
2023-02-02T15:03:45.407Z,97366.56
2023-02-02T15:06:37.729Z,97374.28
2023-02-02T15:09:23.267Z,97386.53
2023-02-02T15:12:01.267Z,97374.78
2023-02-02T15:15:19.008Z,97383.50
2023-02-02T15:17:53.821Z,97379.38
2023-02-02T15:20:37.165Z,97385.53
2023-02-02T15:23:17.389Z,97392.38
2023-02-02T15:26:01.697Z,97398.69
2023-02-02T15:28:28.133Z,97395.84
2023-02-02T15:30:58.456Z,97402.25
2023-02-02T15:33:37.380Z,97415.66
2023-02-02T15:36:10.063Z,97407.25
2023-02-02T15:38:39.946Z,97400.66
2023-02-02T15:41:22.682Z,97404.50
2023-02-02T15:43:49.227Z,97402.59
2023-02-02T15:46:24.581Z,97402.41
2023-02-02T15:49:33.362Z,97423.84
2023-02-02T15:52:10.502Z,97423.09
2023-02-02T15:54:39.944Z,97426.56
2023-02-02T15:57:33.530Z,97426.50
2023-02-02T16:00:21.119Z,97434.91
2023-02-02T16:02:51.305Z,97401.84
2023-02-02T16:05:36.838Z,97460.91
2023-02-02T16:08:08.421Z,97452.72
2023-02-02T16:10:36.306Z,97454.16
2023-02-02T16:13:03.399Z,97472.00
2023-02-02T16:15:31.881Z,97471.22
2023-02-02T16:17:58.595Z,97480.28
2023-02-02T16:20:25.746Z,97484.94
2023-02-02T16:22:53.989Z,97485.13
2023-02-02T16:25:23.949Z,97475.63
2023-02-02T16:27:51.925Z,97493.94
2023-02-02T16:30:30.194Z,97500.03
2023-02-02T16:32:56.926Z,97506.59
2023-02-02T16:35:38.536Z,97509.69
2023-02-02T16:38:24.825Z,97516.69
2023-02-02T16:41:12.582Z,97518.78
2023-02-02T16:43:41.070Z,97522.81
2023-02-02T16:46:16.476Z,97515.97
2023-02-02T16:48:59.487Z,97522.09
2023-02-02T16:51:28.436Z,97517.31
2023-02-02T16:54:10.640Z,97535.72
2023-02-02T16:56:43.581Z,97542.03
2023-02-02T16:59:26.924Z,97537.94
2023-02-02T17:01:59.700Z,97535.47
2023-02-02T17:04:32.280Z,97545.97
2023-02-02T17:07:09.872Z,97549.03
2023-02-02T17:09:40.848Z,97549.09
2023-02-02T17:12:31.967Z,97558.63
2023-02-02T17:15:34.861Z,97562.25
2023-02-02T17:18:03.560Z,97561.28
2023-02-02T17:20:30.777Z,97567.38
2023-02-02T17:23:07.043Z,97578.88
2023-02-02T17:25:41.273Z,97580.00
2023-02-02T17:28:12.027Z,97574.94
2023-02-02T17:30:47.432Z,97580.28
2023-02-02T17:33:16.354Z,97588.22
2023-02-02T17:35:54.137Z,97592.66
2023-02-02T17:38:23.675Z,97600.59
2023-02-02T17:40:51.310Z,97585.75
2023-02-02T17:43:18.673Z,97606.06
2023-02-02T17:45:45.306Z,97608.78
2023-02-02T17:48:13.560Z,97616.56
2023-02-02T17:50:41.651Z,97620.53
2023-02-02T17:53:13.446Z,97615.56
2023-02-02T17:55:42.505Z,97620.16
2023-02-02T17:58:10.554Z,97616.56
2023-02-02T18:00:39.264Z,97614.41
2023-02-02T18:03:22.246Z,97617.81
2023-02-02T18:05:48.991Z,97608.22
2023-02-02T18:08:15.820Z,97625.38
2023-02-02T18:10:43.353Z,97603.47
2023-02-02T18:13:14.786Z,97619.44
2023-02-02T18:15:41.483Z,97601.75
2023-02-02T18:18:08.548Z,97631.38
2023-02-02T18:20:36.294Z,97629.50
2023-02-02T18:23:02.978Z,97579.94
2023-02-02T18:25:29.535Z,97618.34
2023-02-02T18:27:57.464Z,97604.81
2023-02-02T18:30:24.771Z,97575.09
2023-02-02T18:32:51.615Z,97578.50
2023-02-02T18:35:18.172Z,97585.69
2023-02-02T18:37:44.710Z,97572.31
2023-02-02T18:40:11.869Z,97589.53
2023-02-02T18:42:38.466Z,97612.59
2023-02-02T18:45:05.547Z,97560.28
2023-02-02T18:47:32.076Z,97572.56
2023-02-02T18:49:58.606Z,97560.13
2023-02-02T18:52:25.536Z,97631.38
2023-02-02T18:54:52.459Z,97659.78
2023-02-02T18:57:19.087Z,97584.94
2023-02-02T18:59:45.682Z,97657.13
2023-02-02T19:02:17.637Z,97599.06
2023-02-02T19:05:04.477Z,97579.75
2023-02-02T19:07:50.891Z,97626.66
2023-02-02T19:10:18.631Z,97569.28
2023-02-02T19:12:58.587Z,97578.31
2023-02-02T19:15:26.802Z,97626.06
2023-02-02T19:17:55.189Z,97626.75
2023-02-02T19:20:21.712Z,97659.38
2023-02-02T19:22:48.207Z,97587.88
2023-02-02T19:25:18.872Z,97547.44
2023-02-02T19:27:45.390Z,97580.03
2023-02-02T19:30:19.447Z,97673.19
2023-02-02T19:32:46.007Z,97634.25
2023-02-02T19:35:24.409Z,97665.00
2023-02-02T19:38:01.788Z,97691.97
2023-02-02T19:40:28.834Z,97653.50
2023-02-02T19:43:14.713Z,97680.81
2023-02-02T19:45:41.231Z,97685.75
2023-02-02T19:48:13.852Z,97679.53
2023-02-02T19:50:43.301Z,97633.78
2023-02-02T19:53:34.795Z,97678.72
2023-02-02T19:56:01.914Z,97616.19
2023-02-02T19:58:37.398Z,97665.84
2023-02-02T20:01:14.920Z,97684.66
2023-02-02T20:03:43.338Z,97670.16
2023-02-02T20:06:32.110Z,97653.00
2023-02-02T20:09:01.060Z,97568.66
2023-02-02T20:11:39.551Z,97687.44
2023-02-02T20:14:29.524Z,97682.88
2023-02-02T20:17:00.901Z,97675.25
2023-02-02T20:19:33.315Z,97684.41
2023-02-02T20:21:59.992Z,97644.63
2023-02-02T20:24:36.064Z,97686.03
2023-02-02T20:27:17.893Z,97698.63
2023-02-02T20:29:46.700Z,97663.22
2023-02-02T20:32:40.495Z,97700.34
2023-02-02T20:35:24.296Z,97704.66
2023-02-02T20:37:51.421Z,97655.94
2023-02-02T20:40:21.092Z,97687.13
2023-02-02T20:42:48.747Z,97618.63
2023-02-02T20:45:17.480Z,97638.34
2023-02-02T20:47:47.343Z,97631.06
2023-02-02T20:50:15.830Z,97653.94
2023-02-02T20:52:42.567Z,97615.47
2023-02-02T20:55:10.258Z,97701.19
2023-02-02T20:57:38.547Z,97713.72
2023-02-02T21:00:07.819Z,97712.25
2023-02-02T21:02:34.941Z,97710.69
2023-02-02T21:05:01.550Z,97702.94
2023-02-02T21:07:28.259Z,97725.31
2023-02-02T21:09:54.999Z,97713.28
2023-02-02T21:12:25.370Z,97733.88
2023-02-02T21:14:53.892Z,97702.19
2023-02-02T21:17:20.492Z,97718.25
2023-02-02T21:19:47.219Z,97713.25
2023-02-02T21:22:13.765Z,97693.41
2023-02-02T21:24:40.722Z,97716.81
2023-02-02T21:27:07.615Z,97685.69
2023-02-02T21:29:34.934Z,97721.53
2023-02-02T21:32:02.780Z,97711.97
2023-02-02T21:34:30.373Z,97714.88
2023-02-02T21:36:58.261Z,97739.94
2023-02-02T21:39:36.976Z,97747.38
2023-02-02T21:42:09.634Z,97750.63
2023-02-02T21:44:53.599Z,97745.13
2023-02-02T21:47:51.346Z,97752.44
2023-02-02T21:50:27.882Z,97756.38
2023-02-02T21:53:14.786Z,97753.78
2023-02-02T21:55:41.422Z,97738.47
2023-02-02T21:58:13.911Z,97749.25
2023-02-02T22:00:40.646Z,97754.41
2023-02-02T22:03:34.215Z,97764.53
2023-02-02T22:06:35.542Z,97760.41
2023-02-02T22:09:14.250Z,97746.81
2023-02-02T22:12:02.019Z,97752.75
2023-02-02T22:14:37.107Z,97750.00
2023-02-02T22:17:20.615Z,97756.13
2023-02-02T22:19:47.360Z,97713.13
2023-02-02T22:22:26.231Z,97752.75
2023-02-02T22:25:16.217Z,97736.41
2023-02-02T22:27:51.538Z,97731.81
2023-02-02T22:30:38.721Z,97760.53
2023-02-02T22:33:07.921Z,97746.19
2023-02-02T22:35:35.200Z,97742.00
2023-02-02T22:38:03.575Z,97620.44
2023-02-02T22:40:30.686Z,97763.13
2023-02-02T22:43:02.758Z,97766.03
2023-02-02T22:45:29.355Z,97749.78
2023-02-02T22:47:55.904Z,97746.03
2023-02-02T22:50:28.554Z,97745.47
2023-02-02T22:52:56.009Z,97761.84
2023-02-02T22:55:22.720Z,97757.34
2023-02-02T22:57:49.655Z,97745.44
2023-02-02T23:00:21.961Z,97760.22
2023-02-02T23:17:57.372Z,97758.66
2023-02-02T23:20:23.969Z,97765.81
2023-02-02T23:22:50.713Z,97767.28
2023-02-02T23:25:22.020Z,97744.13
2023-02-02T23:27:49.028Z,97749.25
2023-02-02T23:30:16.052Z,97762.25
2023-02-02T23:32:42.729Z,97767.53
2023-02-02T23:35:10.881Z,97755.34
2023-02-02T23:37:37.941Z,97753.38
2023-02-02T23:40:05.031Z,97775.59
2023-02-02T23:42:32.065Z,97763.28
2023-02-02T23:44:58.583Z,97778.69
2023-02-02T23:47:25.647Z,97762.72
2023-02-02T23:49:52.472Z,97766.19
2023-02-02T23:52:19.134Z,97771.94
2023-02-02T23:54:45.815Z,97756.03
2023-02-02T23:57:12.711Z,97758.84
2023-02-02T23:59:39.228Z,97776.38
